sensor_id;sensor_type;location;lat;lon;timestamp;pressure;altitude;pressure_sealevel;temperature;humidity
77149;BME280;66122;47.130;16.844;2023-07-31T00:19:38;99595.66;;;15.71;100.00
77149;BME280;66122;47.130;16.844;2023-07-31T00:29:41;99578.78;;;15.93;100.00
77149;BME280;66122;47.130;16.844;2023-07-31T00:39:44;99596.66;;;16.15;100.00
77149;BME280;66122;47.130;16.844;2023-07-31T00:49:46;99605.19;;;15.97;100.00
77149;BME280;66122;47.130;16.844;2023-07-31T00:59:49;99624.56;;;15.66;100.00
77149;BME280;66122;47.130;16.844;2023-07-31T01:10:08;99612.16;;;15.65;100.00
77149;BME280;66122;47.130;16.844;2023-07-31T01:20:22;99627.50;;;15.50;100.00
77149;BME280;66122;47.130;16.844;2023-07-31T01:30:28;99619.00;;;15.34;100.00
77149;BME280;66122;47.130;16.844;2023-07-31T01:40:32;99613.00;;;15.31;100.00
77149;BME280;66122;47.130;16.844;2023-07-31T01:50:34;99612.53;;;15.37;100.00
77149;BME280;66122;47.130;16.844;2023-07-31T02:00:37;99614.06;;;15.17;100.00
77149;BME280;66122;47.130;16.844;2023-07-31T02:10:39;99636.16;;;15.19;100.00
77149;BME280;66122;47.130;16.844;2023-07-31T02:20:42;99649.50;;;15.19;100.00
77149;BME280;66122;47.130;16.844;2023-07-31T02:30:45;99643.13;;;15.33;100.00
77149;BME280;66122;47.130;16.844;2023-07-31T02:40:50;99636.72;;;14.88;100.00
77149;BME280;66122;47.130;16.844;2023-07-31T02:50:53;99639.94;;;14.80;100.00
77149;BME280;66122;47.130;16.844;2023-07-31T03:00:58;99651.13;;;14.85;100.00
77149;BME280;66122;47.130;16.844;2023-07-31T03:11:01;99652.81;;;14.62;100.00
77149;BME280;66122;47.130;16.844;2023-07-31T03:21:04;99663.25;;;14.65;100.00
77149;BME280;66122;47.130;16.844;2023-07-31T03:31:07;99670.41;;;14.65;100.00
77149;BME280;66122;47.130;16.844;2023-07-31T03:41:10;99681.03;;;14.77;100.00
77149;BME280;66122;47.130;16.844;2023-07-31T03:51:13;99667.63;;;14.66;100.00
77149;BME280;66122;47.130;16.844;2023-07-31T04:01:15;99672.16;;;14.90;100.00
77149;BME280;66122;47.130;16.844;2023-07-31T04:11:19;99683.53;;;15.04;100.00
77149;BME280;66122;47.130;16.844;2023-07-31T04:21:21;99675.22;;;15.20;100.00
77149;BME280;66122;47.130;16.844;2023-07-31T04:31:24;99673.34;;;15.09;100.00
77149;BME280;66122;47.130;16.844;2023-07-31T04:41:26;99678.59;;;15.11;100.00
77149;BME280;66122;47.130;16.844;2023-07-31T04:51:29;99674.25;;;15.45;100.00
77149;BME280;66122;47.130;16.844;2023-07-31T05:01:32;99676.91;;;15.69;100.00
77149;BME280;66122;47.130;16.844;2023-07-31T05:11:34;99679.06;;;15.63;100.00
77149;BME280;66122;47.130;16.844;2023-07-31T05:21:37;99689.44;;;16.81;100.00
77149;BME280;66122;47.130;16.844;2023-07-31T05:31:39;99691.81;;;17.81;100.00
77149;BME280;66122;47.130;16.844;2023-07-31T05:41:42;99704.63;;;18.70;100.00
77149;BME280;66122;47.130;16.844;2023-07-31T05:51:45;99697.16;;;18.84;100.00
77149;BME280;66122;47.130;16.844;2023-07-31T06:01:47;99708.00;;;19.13;100.00
77149;BME280;66122;47.130;16.844;2023-07-31T06:11:50;99697.31;;;19.61;96.30
77149;BME280;66122;47.130;16.844;2023-07-31T06:21:53;99694.16;;;20.23;89.68
77149;BME280;66122;47.130;16.844;2023-07-31T06:31:55;99693.38;;;20.50;86.16
77149;BME280;66122;47.130;16.844;2023-07-31T06:41:58;99705.03;;;20.78;84.14
77149;BME280;66122;47.130;16.844;2023-07-31T06:52:01;99696.47;;;21.37;82.99
77149;BME280;66122;47.130;16.844;2023-07-31T07:02:04;99691.25;;;21.53;78.83
77149;BME280;66122;47.130;16.844;2023-07-31T07:12:08;99688.19;;;22.35;76.32
77149;BME280;66122;47.130;16.844;2023-07-31T07:22:11;99695.91;;;22.82;68.52
77149;BME280;66122;47.130;16.844;2023-07-31T07:32:13;99690.63;;;23.14;68.32
77149;BME280;66122;47.130;16.844;2023-07-31T07:42:16;99682.59;;;23.47;68.03
77149;BME280;66122;47.130;16.844;2023-07-31T07:52:18;99683.38;;;23.23;63.77
77149;BME280;66122;47.130;16.844;2023-07-31T08:02:22;99680.88;;;23.38;66.71
77149;BME280;66122;47.130;16.844;2023-07-31T08:12:27;99688.41;;;23.76;64.86
77149;BME280;66122;47.130;16.844;2023-07-31T08:22:29;99678.22;;;23.78;61.75
77149;BME280;66122;47.130;16.844;2023-07-31T08:32:32;99674.31;;;24.37;60.04
77149;BME280;66122;47.130;16.844;2023-07-31T08:42:46;99680.78;;;24.83;59.76
77149;BME280;66122;47.130;16.844;2023-07-31T08:52:51;99695.38;;;25.44;58.68
77149;BME280;66122;47.130;16.844;2023-07-31T09:12:59;99680.06;;;25.28;50.98
77149;BME280;66122;47.130;16.844;2023-07-31T09:23:09;99673.13;;;24.40;57.73
77149;BME280;66122;47.130;16.844;2023-07-31T09:33:12;99668.53;;;24.87;55.86
77149;BME280;66122;47.130;16.844;2023-07-31T09:43:20;99665.63;;;25.59;53.05
77149;BME280;66122;47.130;16.844;2023-07-31T09:53:28;99645.19;;;25.17;52.21
77149;BME280;66122;47.130;16.844;2023-07-31T10:03:32;99642.44;;;25.25;50.79
77149;BME280;66122;47.130;16.844;2023-07-31T10:13:36;99649.91;;;24.93;57.97
77149;BME280;66122;47.130;16.844;2023-07-31T10:23:39;99630.84;;;25.62;50.79
77149;BME280;66122;47.130;16.844;2023-07-31T10:33:42;99613.84;;;26.35;48.53
77149;BME280;66122;47.130;16.844;2023-07-31T10:43:47;99605.06;;;25.58;50.56
77149;BME280;66122;47.130;16.844;2023-07-31T10:54:10;99592.06;;;26.94;48.56
77149;BME280;66122;47.130;16.844;2023-07-31T11:04:14;99573.59;;;27.32;47.36
77149;BME280;66122;47.130;16.844;2023-07-31T11:14:20;99571.16;;;28.49;43.63
77149;BME280;66122;47.130;16.844;2023-07-31T11:24:23;99557.13;;;29.12;41.60
77149;BME280;66122;47.130;16.844;2023-07-31T11:34:27;99547.03;;;29.13;43.73
77149;BME280;66122;47.130;16.844;2023-07-31T11:44:38;99546.59;;;26.59;49.56
77149;BME280;66122;47.130;16.844;2023-07-31T11:54:40;99534.13;;;27.22;46.86
77149;BME280;66122;47.130;16.844;2023-07-31T12:04:50;99517.13;;;27.41;45.71
77149;BME280;66122;47.130;16.844;2023-07-31T12:14:59;99512.53;;;27.41;45.58
77149;BME280;66122;47.130;16.844;2023-07-31T12:25:03;99478.91;;;28.65;44.10
77149;BME280;66122;47.130;16.844;2023-07-31T12:35:07;99457.78;;;28.94;41.62
77149;BME280;66122;47.130;16.844;2023-07-31T12:45:10;99446.13;;;28.52;43.02
77149;BME280;66122;47.130;16.844;2023-07-31T12:55:13;99437.63;;;28.95;43.19
77149;BME280;66122;47.130;16.844;2023-07-31T13:05:16;99415.44;;;28.24;44.29
77149;BME280;66122;47.130;16.844;2023-07-31T13:15:18;99403.81;;;28.83;42.62
77149;BME280;66122;47.130;16.844;2023-07-31T13:25:21;99372.81;;;27.06;49.73
77149;BME280;66122;47.130;16.844;2023-07-31T13:35:23;99365.81;;;27.25;48.49
77149;BME280;66122;47.130;16.844;2023-07-31T13:45:26;99358.81;;;27.09;48.47
77149;BME280;66122;47.130;16.844;2023-07-31T13:55:29;99373.38;;;29.38;44.19
77149;BME280;66122;47.130;16.844;2023-07-31T14:05:31;99376.88;;;26.47;52.27
77149;BME280;66122;47.130;16.844;2023-07-31T14:15:34;99373.59;;;25.64;57.10
77149;BME280;66122;47.130;16.844;2023-07-31T14:25:38;99349.00;;;26.66;52.79
77149;BME280;66122;47.130;16.844;2023-07-31T14:35:40;99351.81;;;26.94;53.40
77149;BME280;66122;47.130;16.844;2023-07-31T14:45:43;99341.06;;;27.13;54.16
77149;BME280;66122;47.130;16.844;2023-07-31T14:55:45;99307.06;;;26.75;56.63
77149;BME280;66122;47.130;16.844;2023-07-31T15:05:48;99303.28;;;26.97;54.16
77149;BME280;66122;47.130;16.844;2023-07-31T15:15:50;99306.03;;;28.80;45.69
77149;BME280;66122;47.130;16.844;2023-07-31T15:25:53;99300.28;;;29.14;46.68
77149;BME280;66122;47.130;16.844;2023-07-31T15:35:56;99306.59;;;28.16;47.66
77149;BME280;66122;47.130;16.844;2023-07-31T15:45:59;99288.22;;;27.83;48.85
77149;BME280;66122;47.130;16.844;2023-07-31T15:56:02;99271.47;;;27.86;49.81
77149;BME280;66122;47.130;16.844;2023-07-31T16:06:05;99275.97;;;27.18;51.07
77149;BME280;66122;47.130;16.844;2023-07-31T16:16:07;99260.94;;;27.23;52.13
77149;BME280;66122;47.130;16.844;2023-07-31T16:26:10;99255.41;;;27.09;53.39
77149;BME280;66122;47.130;16.844;2023-07-31T16:36:12;99249.75;;;26.49;54.40
77149;BME280;66122;47.130;16.844;2023-07-31T16:46:15;99260.53;;;26.35;55.56
77149;BME280;66122;47.130;16.844;2023-07-31T16:56:18;99245.00;;;26.29;57.24
77149;BME280;66122;47.130;16.844;2023-07-31T17:06:20;99243.84;;;25.60;61.35
77149;BME280;66122;47.130;16.844;2023-07-31T17:16:23;99257.63;;;24.70;67.09
77149;BME280;66122;47.130;16.844;2023-07-31T17:26:26;99257.69;;;24.25;69.58
77149;BME280;66122;47.130;16.844;2023-07-31T17:36:29;99258.22;;;23.97;69.91
77149;BME280;66122;47.130;16.844;2023-07-31T17:46:34;99258.03;;;23.45;73.98
77149;BME280;66122;47.130;16.844;2023-07-31T17:56:37;99256.69;;;23.02;76.55
77149;BME280;66122;47.130;16.844;2023-07-31T18:06:41;99263.19;;;22.69;77.84
77149;BME280;66122;47.130;16.844;2023-07-31T18:16:43;99257.47;;;22.31;81.02
77149;BME280;66122;47.130;16.844;2023-07-31T18:26:46;99251.41;;;21.97;82.66
77149;BME280;66122;47.130;16.844;2023-07-31T18:36:49;99254.38;;;21.86;83.17
77149;BME280;66122;47.130;16.844;2023-07-31T18:46:51;99233.78;;;21.60;84.91
77149;BME280;66122;47.130;16.844;2023-07-31T18:56:54;99249.94;;;21.44;85.74
77149;BME280;66122;47.130;16.844;2023-07-31T19:06:56;99244.81;;;21.33;86.16
77149;BME280;66122;47.130;16.844;2023-07-31T19:16:59;99255.81;;;21.05;87.86
77149;BME280;66122;47.130;16.844;2023-07-31T19:27:03;99259.00;;;20.75;89.88
77149;BME280;66122;47.130;16.844;2023-07-31T19:37:06;99259.28;;;20.64;90.21
77149;BME280;66122;47.130;16.844;2023-07-31T19:47:08;99241.03;;;20.50;90.63
77149;BME280;66122;47.130;16.844;2023-07-31T19:57:11;99251.91;;;20.40;92.29
77149;BME280;66122;47.130;16.844;2023-07-31T20:07:14;99250.44;;;20.28;91.86
77149;BME280;66122;47.130;16.844;2023-07-31T20:17:16;99248.22;;;20.23;92.14
77149;BME280;66122;47.130;16.844;2023-07-31T20:27:21;99224.94;;;20.14;92.65
77149;BME280;66122;47.130;16.844;2023-07-31T20:37:23;99219.84;;;20.11;91.44
77149;BME280;66122;47.130;16.844;2023-07-31T20:47:26;99220.19;;;19.55;96.14
77149;BME280;66122;47.130;16.844;2023-07-31T20:57:29;99215.09;;;19.34;97.93
77149;BME280;66122;47.130;16.844;2023-07-31T21:07:31;99204.53;;;19.51;97.46
77149;BME280;66122;47.130;16.844;2023-07-31T21:17:34;99196.38;;;19.60;94.96
77149;BME280;66122;47.130;16.844;2023-07-31T21:27:37;99181.78;;;19.63;95.16
77149;BME280;66122;47.130;16.844;2023-07-31T21:37:39;99200.91;;;19.60;96.22
77149;BME280;66122;47.130;16.844;2023-07-31T21:47:42;99192.94;;;19.50;96.46
77149;BME280;66122;47.130;16.844;2023-07-31T21:57:44;99181.28;;;19.14;98.56
77149;BME280;66122;47.130;16.844;2023-07-31T22:07:47;99185.09;;;19.11;99.13
77149;BME280;66122;47.130;16.844;2023-07-31T22:17:49;99179.59;;;19.13;97.19
77149;BME280;66122;47.130;16.844;2023-07-31T22:27:52;99170.44;;;19.06;99.27
77149;BME280;66122;47.130;16.844;2023-07-31T22:37:58;99172.00;;;19.08;99.95
77149;BME280;66122;47.130;16.844;2023-07-31T22:48:01;99157.31;;;19.03;97.97
77149;BME280;66122;47.130;16.844;2023-07-31T22:58:03;99145.00;;;18.83;98.52
77149;BME280;66122;47.130;16.844;2023-07-31T23:08:06;99130.19;;;18.79;100.00
77149;BME280;66122;47.130;16.844;2023-07-31T23:18:08;99112.88;;;18.91;97.08
77149;BME280;66122;47.130;16.844;2023-07-31T23:28:11;99105.03;;;18.80;98.43
77149;BME280;66122;47.130;16.844;2023-07-31T23:38:13;99093.28;;;18.81;96.94
77149;BME280;66122;47.130;16.844;2023-07-31T23:48:16;99088.59;;;18.83;97.00
77149;BME280;66122;47.130;16.844;2023-07-31T23:58:18;99067.34;;;18.71;98.87
